sensor_id;sensor_type;location;lat;lon;timestamp;temperature;humidity
60287;DHT22;46141;52.382;5.270;2024-03-29T00:00:55;21.50;64.50
60287;DHT22;46141;52.382;5.270;2024-03-29T00:03:20;21.50;64.50
60287;DHT22;46141;52.382;5.270;2024-03-29T00:05:46;21.40;64.60
60287;DHT22;46141;52.382;5.270;2024-03-29T00:08:12;21.40;64.50
60287;DHT22;46141;52.382;5.270;2024-03-29T00:10:37;21.40;65.20
60287;DHT22;46141;52.382;5.270;2024-03-29T00:13:04;21.40;64.70
60287;DHT22;46141;52.382;5.270;2024-03-29T00:15:31;21.40;64.70
60287;DHT22;46141;52.382;5.270;2024-03-29T00:17:57;21.30;64.60
60287;DHT22;46141;52.382;5.270;2024-03-29T00:20:23;21.40;64.50
60287;DHT22;46141;52.382;5.270;2024-03-29T00:22:49;21.30;64.60
60287;DHT22;46141;52.382;5.270;2024-03-29T00:25:14;21.30;64.70
60287;DHT22;46141;52.382;5.270;2024-03-29T00:27:40;21.30;64.70
60287;DHT22;46141;52.382;5.270;2024-03-29T00:30:06;21.30;64.80
60287;DHT22;46141;52.382;5.270;2024-03-29T00:32:32;21.20;65.00
60287;DHT22;46141;52.382;5.270;2024-03-29T00:34:57;21.20;64.90
60287;DHT22;46141;52.382;5.270;2024-03-29T00:37:23;21.10;65.00
60287;DHT22;46141;52.382;5.270;2024-03-29T00:39:49;21.10;65.40
60287;DHT22;46141;52.382;5.270;2024-03-29T00:42:15;21.00;65.30
60287;DHT22;46141;52.382;5.270;2024-03-29T00:44:42;21.10;65.20
60287;DHT22;46141;52.382;5.270;2024-03-29T00:47:08;21.00;65.50
60287;DHT22;46141;52.382;5.270;2024-03-29T00:49:35;21.00;65.30
60287;DHT22;46141;52.382;5.270;2024-03-29T00:52:02;21.10;65.30
60287;DHT22;46141;52.382;5.270;2024-03-29T00:54:28;21.00;65.20
60287;DHT22;46141;52.382;5.270;2024-03-29T00:56:54;21.00;65.20
60287;DHT22;46141;52.382;5.270;2024-03-29T00:59:20;21.00;65.40
60287;DHT22;46141;52.382;5.270;2024-03-29T01:01:46;21.00;65.30
60287;DHT22;46141;52.382;5.270;2024-03-29T01:04:12;20.90;65.50
60287;DHT22;46141;52.382;5.270;2024-03-29T01:06:38;20.90;65.50
60287;DHT22;46141;52.382;5.270;2024-03-29T01:09:04;20.90;65.40
60287;DHT22;46141;52.382;5.270;2024-03-29T01:11:31;21.00;65.20
60287;DHT22;46141;52.382;5.270;2024-03-29T01:13:57;20.90;65.30
60287;DHT22;46141;52.382;5.270;2024-03-29T01:16:23;20.90;65.20
60287;DHT22;46141;52.382;5.270;2024-03-29T01:18:49;21.00;65.20
60287;DHT22;46141;52.382;5.270;2024-03-29T01:21:14;21.00;65.20
60287;DHT22;46141;52.382;5.270;2024-03-29T01:23:40;20.90;65.20
60287;DHT22;46141;52.382;5.270;2024-03-29T01:26:07;20.90;65.30
60287;DHT22;46141;52.382;5.270;2024-03-29T01:28:33;20.80;65.40
60287;DHT22;46141;52.382;5.270;2024-03-29T01:30:59;20.80;65.30
60287;DHT22;46141;52.382;5.270;2024-03-29T01:33:25;20.80;65.30
60287;DHT22;46141;52.382;5.270;2024-03-29T01:35:51;20.80;65.20
60287;DHT22;46141;52.382;5.270;2024-03-29T01:38:16;20.80;65.10
60287;DHT22;46141;52.382;5.270;2024-03-29T01:40:42;20.90;65.10
60287;DHT22;46141;52.382;5.270;2024-03-29T01:43:08;20.80;65.10
60287;DHT22;46141;52.382;5.270;2024-03-29T01:45:39;20.80;65.20
60287;DHT22;46141;52.382;5.270;2024-03-29T01:48:06;20.80;65.20
60287;DHT22;46141;52.382;5.270;2024-03-29T01:50:32;20.80;65.20
60287;DHT22;46141;52.382;5.270;2024-03-29T01:52:59;20.80;64.90
60287;DHT22;46141;52.382;5.270;2024-03-29T01:55:26;20.80;65.00
60287;DHT22;46141;52.382;5.270;2024-03-29T01:57:52;20.80;65.00
60287;DHT22;46141;52.382;5.270;2024-03-29T02:00:20;20.80;64.90
60287;DHT22;46141;52.382;5.270;2024-03-29T02:02:46;20.80;64.90
60287;DHT22;46141;52.382;5.270;2024-03-29T02:05:12;20.70;65.00
60287;DHT22;46141;52.382;5.270;2024-03-29T02:07:38;20.70;65.10
60287;DHT22;46141;52.382;5.270;2024-03-29T02:10:05;20.70;65.00
60287;DHT22;46141;52.382;5.270;2024-03-29T02:12:33;20.60;65.30
60287;DHT22;46141;52.382;5.270;2024-03-29T02:14:59;20.60;65.20
60287;DHT22;46141;52.382;5.270;2024-03-29T02:17:27;20.60;65.10
60287;DHT22;46141;52.382;5.270;2024-03-29T02:19:53;20.60;65.20
60287;DHT22;46141;52.382;5.270;2024-03-29T02:22:22;20.60;65.00
60287;DHT22;46141;52.382;5.270;2024-03-29T02:24:49;20.60;64.90
60287;DHT22;46141;52.382;5.270;2024-03-29T02:27:16;20.60;65.20
60287;DHT22;46141;52.382;5.270;2024-03-29T02:29:42;20.60;65.20
60287;DHT22;46141;52.382;5.270;2024-03-29T02:32:07;20.60;65.30
60287;DHT22;46141;52.382;5.270;2024-03-29T02:34:33;20.50;65.30
60287;DHT22;46141;52.382;5.270;2024-03-29T02:36:59;20.50;65.20
60287;DHT22;46141;52.382;5.270;2024-03-29T02:39:24;20.50;65.20
60287;DHT22;46141;52.382;5.270;2024-03-29T02:41:50;20.60;65.00
60287;DHT22;46141;52.382;5.270;2024-03-29T02:44:16;20.60;65.00
60287;DHT22;46141;52.382;5.270;2024-03-29T02:46:42;20.50;64.90
60287;DHT22;46141;52.382;5.270;2024-03-29T02:49:08;20.50;65.10
60287;DHT22;46141;52.382;5.270;2024-03-29T02:51:35;20.50;65.00
60287;DHT22;46141;52.382;5.270;2024-03-29T02:54:01;20.50;64.90
60287;DHT22;46141;52.382;5.270;2024-03-29T02:56:26;20.50;64.80
60287;DHT22;46141;52.382;5.270;2024-03-29T02:58:52;20.50;64.70
60287;DHT22;46141;52.382;5.270;2024-03-29T03:01:18;20.50;64.70
60287;DHT22;46141;52.382;5.270;2024-03-29T03:03:46;20.50;64.60
60287;DHT22;46141;52.382;5.270;2024-03-29T03:06:12;20.50;64.50
60287;DHT22;46141;52.382;5.270;2024-03-29T03:08:38;20.50;64.60
60287;DHT22;46141;52.382;5.270;2024-03-29T03:11:22;20.50;64.60
60287;DHT22;46141;52.382;5.270;2024-03-29T03:13:47;20.40;64.50
60287;DHT22;46141;52.382;5.270;2024-03-29T03:16:13;20.40;64.50
60287;DHT22;46141;52.382;5.270;2024-03-29T03:18:39;20.40;64.40
60287;DHT22;46141;52.382;5.270;2024-03-29T03:21:05;20.40;64.40
60287;DHT22;46141;52.382;5.270;2024-03-29T03:23:30;20.40;64.30
60287;DHT22;46141;52.382;5.270;2024-03-29T03:25:58;20.40;64.30
60287;DHT22;46141;52.382;5.270;2024-03-29T03:28:24;20.40;64.40
60287;DHT22;46141;52.382;5.270;2024-03-29T03:30:50;20.40;64.40
60287;DHT22;46141;52.382;5.270;2024-03-29T03:33:16;20.40;65.00
60287;DHT22;46141;52.382;5.270;2024-03-29T03:35:42;20.40;64.40
60287;DHT22;46141;52.382;5.270;2024-03-29T03:38:09;20.30;64.40
60287;DHT22;46141;52.382;5.270;2024-03-29T03:40:35;20.30;64.50
60287;DHT22;46141;52.382;5.270;2024-03-29T03:43:02;20.20;64.40
60287;DHT22;46141;52.382;5.270;2024-03-29T03:45:28;20.20;64.40
60287;DHT22;46141;52.382;5.270;2024-03-29T03:47:53;20.20;64.30
60287;DHT22;46141;52.382;5.270;2024-03-29T03:50:19;20.20;64.40
60287;DHT22;46141;52.382;5.270;2024-03-29T03:52:45;20.20;64.40
60287;DHT22;46141;52.382;5.270;2024-03-29T03:55:11;20.20;64.50
60287;DHT22;46141;52.382;5.270;2024-03-29T03:57:36;20.20;64.40
60287;DHT22;46141;52.382;5.270;2024-03-29T04:00:02;20.20;64.40
60287;DHT22;46141;52.382;5.270;2024-03-29T04:02:28;20.20;64.50
60287;DHT22;46141;52.382;5.270;2024-03-29T04:04:54;20.10;64.40
60287;DHT22;46141;52.382;5.270;2024-03-29T04:07:20;20.10;64.30
60287;DHT22;46141;52.382;5.270;2024-03-29T04:09:45;20.10;64.40
60287;DHT22;46141;52.382;5.270;2024-03-29T04:12:11;20.10;64.50
60287;DHT22;46141;52.382;5.270;2024-03-29T04:14:37;20.10;64.40
60287;DHT22;46141;52.382;5.270;2024-03-29T04:17:03;20.10;64.40
60287;DHT22;46141;52.382;5.270;2024-03-29T04:19:28;20.10;64.40
60287;DHT22;46141;52.382;5.270;2024-03-29T04:21:54;20.10;64.40
60287;DHT22;46141;52.382;5.270;2024-03-29T04:24:19;20.00;64.40
60287;DHT22;46141;52.382;5.270;2024-03-29T04:26:45;20.00;64.40
60287;DHT22;46141;52.382;5.270;2024-03-29T04:29:13;20.10;64.30
60287;DHT22;46141;52.382;5.270;2024-03-29T04:31:39;20.00;64.20
60287;DHT22;46141;52.382;5.270;2024-03-29T04:34:05;20.00;64.20
60287;DHT22;46141;52.382;5.270;2024-03-29T04:36:31;20.00;64.20
60287;DHT22;46141;52.382;5.270;2024-03-29T04:38:57;20.00;64.20
60287;DHT22;46141;52.382;5.270;2024-03-29T04:41:22;19.90;64.30
60287;DHT22;46141;52.382;5.270;2024-03-29T04:43:50;19.90;64.20
60287;DHT22;46141;52.382;5.270;2024-03-29T04:46:15;19.90;64.30
60287;DHT22;46141;52.382;5.270;2024-03-29T04:48:43;19.90;64.20
60287;DHT22;46141;52.382;5.270;2024-03-29T04:51:11;19.90;64.80
60287;DHT22;46141;52.382;5.270;2024-03-29T04:53:37;19.90;64.10
60287;DHT22;46141;52.382;5.270;2024-03-29T04:56:04;19.90;64.20
60287;DHT22;46141;52.382;5.270;2024-03-29T04:58:30;19.90;64.20
60287;DHT22;46141;52.382;5.270;2024-03-29T05:00:56;19.90;64.20
60287;DHT22;46141;52.382;5.270;2024-03-29T05:03:22;19.90;64.20
60287;DHT22;46141;52.382;5.270;2024-03-29T05:05:51;19.80;64.20
60287;DHT22;46141;52.382;5.270;2024-03-29T05:08:18;19.90;64.20
60287;DHT22;46141;52.382;5.270;2024-03-29T05:10:46;19.80;64.20
60287;DHT22;46141;52.382;5.270;2024-03-29T05:13:12;19.90;64.20
60287;DHT22;46141;52.382;5.270;2024-03-29T05:15:40;19.80;64.20
60287;DHT22;46141;52.382;5.270;2024-03-29T05:18:06;19.80;64.10
60287;DHT22;46141;52.382;5.270;2024-03-29T05:20:31;19.80;64.10
60287;DHT22;46141;52.382;5.270;2024-03-29T05:22:58;19.80;64.20
60287;DHT22;46141;52.382;5.270;2024-03-29T05:25:24;19.70;64.20
60287;DHT22;46141;52.382;5.270;2024-03-29T05:27:50;19.80;64.10
60287;DHT22;46141;52.382;5.270;2024-03-29T05:30:16;19.70;64.10
60287;DHT22;46141;52.382;5.270;2024-03-29T05:32:43;19.70;64.10
60287;DHT22;46141;52.382;5.270;2024-03-29T05:35:10;19.70;64.10
60287;DHT22;46141;52.382;5.270;2024-03-29T05:37:36;19.70;64.10
60287;DHT22;46141;52.382;5.270;2024-03-29T05:40:02;19.80;64.00
60287;DHT22;46141;52.382;5.270;2024-03-29T05:42:32;19.70;64.10
60287;DHT22;46141;52.382;5.270;2024-03-29T05:45:20;19.70;64.20
60287;DHT22;46141;52.382;5.270;2024-03-29T05:47:47;19.70;64.20
60287;DHT22;46141;52.382;5.270;2024-03-29T05:50:13;19.70;64.10
60287;DHT22;46141;52.382;5.270;2024-03-29T05:52:38;19.70;64.10
60287;DHT22;46141;52.382;5.270;2024-03-29T05:55:04;19.60;64.10
60287;DHT22;46141;52.382;5.270;2024-03-29T05:57:32;19.70;64.10
60287;DHT22;46141;52.382;5.270;2024-03-29T05:59:59;19.60;64.00
60287;DHT22;46141;52.382;5.270;2024-03-29T06:02:25;19.60;64.00
60287;DHT22;46141;52.382;5.270;2024-03-29T06:04:51;19.60;64.00
60287;DHT22;46141;52.382;5.270;2024-03-29T06:07:20;19.60;64.00
60287;DHT22;46141;52.382;5.270;2024-03-29T06:09:45;19.60;64.00
60287;DHT22;46141;52.382;5.270;2024-03-29T06:12:11;19.60;64.00
60287;DHT22;46141;52.382;5.270;2024-03-29T06:14:37;19.60;64.00
60287;DHT22;46141;52.382;5.270;2024-03-29T06:17:21;19.60;63.90
60287;DHT22;46141;52.382;5.270;2024-03-29T06:19:54;19.60;64.00
60287;DHT22;46141;52.382;5.270;2024-03-29T06:22:22;19.50;64.00
60287;DHT22;46141;52.382;5.270;2024-03-29T06:24:49;19.60;64.00
60287;DHT22;46141;52.382;5.270;2024-03-29T06:27:20;19.60;64.00
60287;DHT22;46141;52.382;5.270;2024-03-29T06:29:49;19.50;63.90
60287;DHT22;46141;52.382;5.270;2024-03-29T06:32:14;19.60;63.90
60287;DHT22;46141;52.382;5.270;2024-03-29T06:34:41;19.50;63.80
60287;DHT22;46141;52.382;5.270;2024-03-29T06:37:07;19.60;63.80
60287;DHT22;46141;52.382;5.270;2024-03-29T06:39:33;19.50;63.80
60287;DHT22;46141;52.382;5.270;2024-03-29T06:41:58;19.50;63.70
60287;DHT22;46141;52.382;5.270;2024-03-29T06:44:24;19.50;63.60
60287;DHT22;46141;52.382;5.270;2024-03-29T06:46:50;19.50;63.60
60287;DHT22;46141;52.382;5.270;2024-03-29T06:49:16;19.50;63.50
60287;DHT22;46141;52.382;5.270;2024-03-29T06:51:43;19.50;63.60
60287;DHT22;46141;52.382;5.270;2024-03-29T06:54:09;19.50;63.20
60287;DHT22;46141;52.382;5.270;2024-03-29T06:56:34;19.30;64.00
60287;DHT22;46141;52.382;5.270;2024-03-29T06:59:00;19.40;63.30
60287;DHT22;46141;52.382;5.270;2024-03-29T07:01:26;19.40;63.70
60287;DHT22;46141;52.382;5.270;2024-03-29T07:03:51;19.40;63.60
60287;DHT22;46141;52.382;5.270;2024-03-29T07:06:17;19.40;63.70
60287;DHT22;46141;52.382;5.270;2024-03-29T07:08:42;19.40;63.80
60287;DHT22;46141;52.382;5.270;2024-03-29T07:11:08;19.40;63.80
60287;DHT22;46141;52.382;5.270;2024-03-29T07:13:35;19.40;63.80
60287;DHT22;46141;52.382;5.270;2024-03-29T07:16:01;19.40;63.70
60287;DHT22;46141;52.382;5.270;2024-03-29T07:18:27;19.40;63.80
60287;DHT22;46141;52.382;5.270;2024-03-29T07:20:53;19.40;63.80
60287;DHT22;46141;52.382;5.270;2024-03-29T07:23:19;19.40;63.80
60287;DHT22;46141;52.382;5.270;2024-03-29T07:25:56;19.40;63.90
60287;DHT22;46141;52.382;5.270;2024-03-29T07:28:22;19.40;63.90
60287;DHT22;46141;52.382;5.270;2024-03-29T07:30:47;19.40;64.00
60287;DHT22;46141;52.382;5.270;2024-03-29T07:33:13;19.30;64.10
60287;DHT22;46141;52.382;5.270;2024-03-29T07:35:41;19.40;64.10
60287;DHT22;46141;52.382;5.270;2024-03-29T07:38:07;19.40;64.00
60287;DHT22;46141;52.382;5.270;2024-03-29T07:40:32;19.40;64.00
60287;DHT22;46141;52.382;5.270;2024-03-29T07:42:58;19.40;64.00
60287;DHT22;46141;52.382;5.270;2024-03-29T07:45:25;19.40;64.00
60287;DHT22;46141;52.382;5.270;2024-03-29T07:47:51;19.40;64.00
60287;DHT22;46141;52.382;5.270;2024-03-29T07:50:21;19.40;64.00
60287;DHT22;46141;52.382;5.270;2024-03-29T07:52:47;19.40;64.00
60287;DHT22;46141;52.382;5.270;2024-03-29T07:55:13;19.40;64.00
60287;DHT22;46141;52.382;5.270;2024-03-29T07:57:39;19.40;64.10
60287;DHT22;46141;52.382;5.270;2024-03-29T08:00:05;19.50;64.20
60287;DHT22;46141;52.382;5.270;2024-03-29T08:02:32;19.40;64.40
60287;DHT22;46141;52.382;5.270;2024-03-29T08:04:58;19.40;64.50
60287;DHT22;46141;52.382;5.270;2024-03-29T08:07:24;19.40;64.40
60287;DHT22;46141;52.382;5.270;2024-03-29T08:09:50;19.50;64.60
60287;DHT22;46141;52.382;5.270;2024-03-29T08:12:16;19.50;65.20
60287;DHT22;46141;52.382;5.270;2024-03-29T08:14:42;19.50;65.70
60287;DHT22;46141;52.382;5.270;2024-03-29T08:17:07;19.50;65.50
60287;DHT22;46141;52.382;5.270;2024-03-29T08:19:35;19.60;64.80
60287;DHT22;46141;52.382;5.270;2024-03-29T08:22:01;19.70;65.20
60287;DHT22;46141;52.382;5.270;2024-03-29T08:24:27;19.80;64.80
60287;DHT22;46141;52.382;5.270;2024-03-29T08:26:53;19.80;64.70
60287;DHT22;46141;52.382;5.270;2024-03-29T08:29:19;19.90;64.70
60287;DHT22;46141;52.382;5.270;2024-03-29T08:31:44;20.00;64.60
60287;DHT22;46141;52.382;5.270;2024-03-29T08:34:10;20.10;64.50
60287;DHT22;46141;52.382;5.270;2024-03-29T08:36:38;20.20;64.40
60287;DHT22;46141;52.382;5.270;2024-03-29T08:39:04;20.30;64.40
60287;DHT22;46141;52.382;5.270;2024-03-29T08:41:30;20.40;64.30
60287;DHT22;46141;52.382;5.270;2024-03-29T08:43:58;20.50;64.90
60287;DHT22;46141;52.382;5.270;2024-03-29T08:46:24;20.60;64.20
60287;DHT22;46141;52.382;5.270;2024-03-29T08:48:49;20.70;64.10
60287;DHT22;46141;52.382;5.270;2024-03-29T08:51:15;20.80;64.10
60287;DHT22;46141;52.382;5.270;2024-03-29T08:53:41;20.90;64.20
60287;DHT22;46141;52.382;5.270;2024-03-29T08:56:07;20.90;64.30
60287;DHT22;46141;52.382;5.270;2024-03-29T08:58:32;21.00;64.30
60287;DHT22;46141;52.382;5.270;2024-03-29T09:00:58;21.10;64.20
60287;DHT22;46141;52.382;5.270;2024-03-29T09:03:25;21.10;64.70
60287;DHT22;46141;52.382;5.270;2024-03-29T09:05:51;21.20;64.00
60287;DHT22;46141;52.382;5.270;2024-03-29T09:08:18;21.30;63.90
60287;DHT22;46141;52.382;5.270;2024-03-29T09:10:44;21.30;64.10
60287;DHT22;46141;52.382;5.270;2024-03-29T09:13:09;21.30;64.00
60287;DHT22;46141;52.382;5.270;2024-03-29T09:15:36;21.40;63.90
60287;DHT22;46141;52.382;5.270;2024-03-29T09:18:02;21.40;63.70
60287;DHT22;46141;52.382;5.270;2024-03-29T09:20:35;21.50;63.60
60287;DHT22;46141;52.382;5.270;2024-03-29T09:23:01;21.60;63.60
60287;DHT22;46141;52.382;5.270;2024-03-29T09:25:27;21.60;63.60
60287;DHT22;46141;52.382;5.270;2024-03-29T09:27:52;21.70;63.60
60287;DHT22;46141;52.382;5.270;2024-03-29T09:30:18;21.70;63.60
60287;DHT22;46141;52.382;5.270;2024-03-29T09:32:45;21.80;63.50
60287;DHT22;46141;52.382;5.270;2024-03-29T09:35:10;21.80;63.60
60287;DHT22;46141;52.382;5.270;2024-03-29T09:37:36;21.80;63.60
60287;DHT22;46141;52.382;5.270;2024-03-29T09:40:04;21.80;63.50
60287;DHT22;46141;52.382;5.270;2024-03-29T09:42:32;21.80;63.50
60287;DHT22;46141;52.382;5.270;2024-03-29T09:45:01;21.90;63.50
60287;DHT22;46141;52.382;5.270;2024-03-29T09:47:29;21.90;63.40
60287;DHT22;46141;52.382;5.270;2024-03-29T09:49:56;21.90;63.50
60287;DHT22;46141;52.382;5.270;2024-03-29T09:52:24;22.00;63.40
60287;DHT22;46141;52.382;5.270;2024-03-29T09:54:49;22.00;63.40
60287;DHT22;46141;52.382;5.270;2024-03-29T09:57:16;22.00;63.40
60287;DHT22;46141;52.382;5.270;2024-03-29T09:59:42;22.00;63.50
60287;DHT22;46141;52.382;5.270;2024-03-29T10:02:15;22.00;63.40
60287;DHT22;46141;52.382;5.270;2024-03-29T10:04:43;22.00;63.60
60287;DHT22;46141;52.382;5.270;2024-03-29T10:07:11;22.00;63.50
60287;DHT22;46141;52.382;5.270;2024-03-29T10:09:39;22.00;63.50
60287;DHT22;46141;52.382;5.270;2024-03-29T10:12:05;22.00;63.60
60287;DHT22;46141;52.382;5.270;2024-03-29T10:14:31;22.00;63.70
60287;DHT22;46141;52.382;5.270;2024-03-29T10:16:58;22.00;63.70
60287;DHT22;46141;52.382;5.270;2024-03-29T10:19:23;22.00;63.70
60287;DHT22;46141;52.382;5.270;2024-03-29T10:21:49;22.00;63.70
60287;DHT22;46141;52.382;5.270;2024-03-29T10:24:16;22.00;63.70
60287;DHT22;46141;52.382;5.270;2024-03-29T10:26:43;22.00;63.60
60287;DHT22;46141;52.382;5.270;2024-03-29T10:29:09;22.00;63.60
60287;DHT22;46141;52.382;5.270;2024-03-29T10:31:35;22.00;63.70
60287;DHT22;46141;52.382;5.270;2024-03-29T10:34:05;22.00;63.60
60287;DHT22;46141;52.382;5.270;2024-03-29T10:36:32;22.10;63.50
60287;DHT22;46141;52.382;5.270;2024-03-29T10:39:10;22.10;63.30
60287;DHT22;46141;52.382;5.270;2024-03-29T10:41:41;22.20;63.10
60287;DHT22;46141;52.382;5.270;2024-03-29T10:44:11;22.30;63.00
60287;DHT22;46141;52.382;5.270;2024-03-29T10:46:38;22.30;63.00
60287;DHT22;46141;52.382;5.270;2024-03-29T10:49:09;22.30;63.00
60287;DHT22;46141;52.382;5.270;2024-03-29T10:51:38;22.40;63.00
60287;DHT22;46141;52.382;5.270;2024-03-29T10:54:06;22.40;62.90
60287;DHT22;46141;52.382;5.270;2024-03-29T10:56:35;22.30;63.10
60287;DHT22;46141;52.382;5.270;2024-03-29T10:59:16;22.20;62.80
60287;DHT22;46141;52.382;5.270;2024-03-29T11:01:45;22.20;62.70
60287;DHT22;46141;52.382;5.270;2024-03-29T11:04:22;22.20;61.20
60287;DHT22;46141;52.382;5.270;2024-03-29T11:06:55;22.10;61.20
60287;DHT22;46141;52.382;5.270;2024-03-29T11:09:28;22.10;61.50
60287;DHT22;46141;52.382;5.270;2024-03-29T11:11:58;22.10;61.60
60287;DHT22;46141;52.382;5.270;2024-03-29T11:14:35;22.10;62.10
60287;DHT22;46141;52.382;5.270;2024-03-29T11:17:03;22.10;61.90
60287;DHT22;46141;52.382;5.270;2024-03-29T11:19:30;22.20;61.80
60287;DHT22;46141;52.382;5.270;2024-03-29T11:21:56;22.20;61.20
60287;DHT22;46141;52.382;5.270;2024-03-29T11:24:23;22.20;60.40
60287;DHT22;46141;52.382;5.270;2024-03-29T11:26:49;22.10;60.30
60287;DHT22;46141;52.382;5.270;2024-03-29T11:29:22;22.10;60.00
60287;DHT22;46141;52.382;5.270;2024-03-29T11:31:56;22.10;60.70
60287;DHT22;46141;52.382;5.270;2024-03-29T11:34:22;22.10;61.50
60287;DHT22;46141;52.382;5.270;2024-03-29T11:36:48;22.10;61.50
60287;DHT22;46141;52.382;5.270;2024-03-29T11:39:21;22.10;61.30
60287;DHT22;46141;52.382;5.270;2024-03-29T11:41:48;22.10;61.40
60287;DHT22;46141;52.382;5.270;2024-03-29T11:44:14;22.10;61.30
60287;DHT22;46141;52.382;5.270;2024-03-29T11:46:40;22.10;61.30
60287;DHT22;46141;52.382;5.270;2024-03-29T11:49:06;22.20;61.40
60287;DHT22;46141;52.382;5.270;2024-03-29T11:51:33;22.30;61.40
60287;DHT22;46141;52.382;5.270;2024-03-29T11:54:00;22.40;61.30
60287;DHT22;46141;52.382;5.270;2024-03-29T11:56:26;22.40;61.20
60287;DHT22;46141;52.382;5.270;2024-03-29T11:58:51;22.40;61.50
60287;DHT22;46141;52.382;5.270;2024-03-29T12:01:18;22.40;61.50
60287;DHT22;46141;52.382;5.270;2024-03-29T12:03:44;22.50;61.60
60287;DHT22;46141;52.382;5.270;2024-03-29T12:06:10;22.60;61.60
60287;DHT22;46141;52.382;5.270;2024-03-29T12:08:39;22.60;61.60
60287;DHT22;46141;52.382;5.270;2024-03-29T12:11:05;22.60;61.80
60287;DHT22;46141;52.382;5.270;2024-03-29T12:13:31;22.60;61.80
60287;DHT22;46141;52.382;5.270;2024-03-29T12:15:59;22.60;61.90
60287;DHT22;46141;52.382;5.270;2024-03-29T12:18:25;22.60;61.90
60287;DHT22;46141;52.382;5.270;2024-03-29T12:20:53;22.70;62.00
60287;DHT22;46141;52.382;5.270;2024-03-29T12:23:22;22.70;62.00
60287;DHT22;46141;52.382;5.270;2024-03-29T12:25:49;22.70;62.00
60287;DHT22;46141;52.382;5.270;2024-03-29T12:28:16;22.70;61.90
60287;DHT22;46141;52.382;5.270;2024-03-29T12:30:44;22.80;61.90
60287;DHT22;46141;52.382;5.270;2024-03-29T12:33:15;22.80;61.90
60287;DHT22;46141;52.382;5.270;2024-03-29T12:35:45;22.80;61.90
60287;DHT22;46141;52.382;5.270;2024-03-29T12:38:12;22.80;61.80
60287;DHT22;46141;52.382;5.270;2024-03-29T12:40:43;22.80;61.70
60287;DHT22;46141;52.382;5.270;2024-03-29T12:43:10;22.80;61.60
60287;DHT22;46141;52.382;5.270;2024-03-29T12:45:41;22.80;61.70
60287;DHT22;46141;52.382;5.270;2024-03-29T12:48:17;22.80;61.90
60287;DHT22;46141;52.382;5.270;2024-03-29T12:50:45;22.70;61.90
60287;DHT22;46141;52.382;5.270;2024-03-29T12:53:13;22.70;62.00
60287;DHT22;46141;52.382;5.270;2024-03-29T12:55:40;22.70;62.10
60287;DHT22;46141;52.382;5.270;2024-03-29T12:58:07;22.70;62.10
60287;DHT22;46141;52.382;5.270;2024-03-29T13:00:35;22.70;62.20
60287;DHT22;46141;52.382;5.270;2024-03-29T13:03:01;22.70;62.20
60287;DHT22;46141;52.382;5.270;2024-03-29T13:05:27;22.80;62.50
60287;DHT22;46141;52.382;5.270;2024-03-29T13:08:04;22.80;62.40
60287;DHT22;46141;52.382;5.270;2024-03-29T13:10:30;22.80;62.50
60287;DHT22;46141;52.382;5.270;2024-03-29T13:12:56;22.80;62.60
60287;DHT22;46141;52.382;5.270;2024-03-29T13:15:24;22.80;62.60
60287;DHT22;46141;52.382;5.270;2024-03-29T13:17:54;22.80;62.70
60287;DHT22;46141;52.382;5.270;2024-03-29T13:20:22;22.80;62.70
60287;DHT22;46141;52.382;5.270;2024-03-29T13:22:50;22.80;62.60
60287;DHT22;46141;52.382;5.270;2024-03-29T13:25:17;22.90;62.70
60287;DHT22;46141;52.382;5.270;2024-03-29T13:27:47;23.00;62.60
60287;DHT22;46141;52.382;5.270;2024-03-29T13:30:13;23.00;62.50
60287;DHT22;46141;52.382;5.270;2024-03-29T13:32:41;23.10;62.60
60287;DHT22;46141;52.382;5.270;2024-03-29T13:35:08;23.10;62.60
60287;DHT22;46141;52.382;5.270;2024-03-29T13:37:42;23.10;62.60
60287;DHT22;46141;52.382;5.270;2024-03-29T13:40:09;23.10;62.60
60287;DHT22;46141;52.382;5.270;2024-03-29T13:42:39;23.10;62.60
60287;DHT22;46141;52.382;5.270;2024-03-29T13:45:06;23.20;62.60
60287;DHT22;46141;52.382;5.270;2024-03-29T13:47:33;23.20;62.60
60287;DHT22;46141;52.382;5.270;2024-03-29T13:49:59;23.30;62.60
60287;DHT22;46141;52.382;5.270;2024-03-29T13:52:24;23.40;62.70
60287;DHT22;46141;52.382;5.270;2024-03-29T13:54:52;23.40;62.70
60287;DHT22;46141;52.382;5.270;2024-03-29T13:57:18;23.40;62.70
60287;DHT22;46141;52.382;5.270;2024-03-29T13:59:44;23.30;62.70
60287;DHT22;46141;52.382;5.270;2024-03-29T14:02:18;23.30;62.70
60287;DHT22;46141;52.382;5.270;2024-03-29T14:04:45;23.30;62.80
60287;DHT22;46141;52.382;5.270;2024-03-29T14:07:12;23.30;62.90
60287;DHT22;46141;52.382;5.270;2024-03-29T14:09:42;23.30;62.90
60287;DHT22;46141;52.382;5.270;2024-03-29T14:12:08;23.30;63.00
60287;DHT22;46141;52.382;5.270;2024-03-29T14:14:35;23.30;63.00
60287;DHT22;46141;52.382;5.270;2024-03-29T14:17:01;23.40;63.10
60287;DHT22;46141;52.382;5.270;2024-03-29T14:19:30;23.30;63.10
60287;DHT22;46141;52.382;5.270;2024-03-29T14:21:56;23.30;63.20
60287;DHT22;46141;52.382;5.270;2024-03-29T14:24:21;23.30;63.20
60287;DHT22;46141;52.382;5.270;2024-03-29T14:26:50;23.30;63.30
60287;DHT22;46141;52.382;5.270;2024-03-29T14:29:16;23.30;63.70
60287;DHT22;46141;52.382;5.270;2024-03-29T14:31:43;23.30;63.20
60287;DHT22;46141;52.382;5.270;2024-03-29T14:34:10;23.30;63.30
60287;DHT22;46141;52.382;5.270;2024-03-29T14:36:36;23.30;63.30
60287;DHT22;46141;52.382;5.270;2024-03-29T14:39:01;23.30;63.20
60287;DHT22;46141;52.382;5.270;2024-03-29T14:41:28;23.30;63.30
60287;DHT22;46141;52.382;5.270;2024-03-29T14:43:54;23.30;63.20
60287;DHT22;46141;52.382;5.270;2024-03-29T14:46:21;23.20;63.00
60287;DHT22;46141;52.382;5.270;2024-03-29T14:48:47;23.20;63.00
60287;DHT22;46141;52.382;5.270;2024-03-29T14:51:13;23.20;62.90
60287;DHT22;46141;52.382;5.270;2024-03-29T14:53:38;23.20;63.30
60287;DHT22;46141;52.382;5.270;2024-03-29T14:56:04;23.20;63.30
60287;DHT22;46141;52.382;5.270;2024-03-29T14:58:30;23.20;63.30
60287;DHT22;46141;52.382;5.270;2024-03-29T15:00:56;23.20;63.50
60287;DHT22;46141;52.382;5.270;2024-03-29T15:03:22;23.20;63.50
60287;DHT22;46141;52.382;5.270;2024-03-29T15:05:49;23.30;63.80
60287;DHT22;46141;52.382;5.270;2024-03-29T15:08:15;23.30;63.60
60287;DHT22;46141;52.382;5.270;2024-03-29T15:10:44;23.30;63.60
60287;DHT22;46141;52.382;5.270;2024-03-29T15:13:09;23.30;63.70
60287;DHT22;46141;52.382;5.270;2024-03-29T15:15:35;23.20;63.80
60287;DHT22;46141;52.382;5.270;2024-03-29T15:18:03;23.20;63.80
60287;DHT22;46141;52.382;5.270;2024-03-29T15:20:31;23.20;63.80
60287;DHT22;46141;52.382;5.270;2024-03-29T15:22:57;23.20;64.10
60287;DHT22;46141;52.382;5.270;2024-03-29T15:25:24;23.20;64.10
60287;DHT22;46141;52.382;5.270;2024-03-29T15:27:49;23.10;64.30